Terminal Aerodrome Forecast
Issued by NWS

Home | Current Version | Previous Version | Text Only | Print | Product List | Glossary On
Versions: 1 2 3 4 5 6 7 8 9 10 11 12 13 14 15 16 17 18 19 20 21 22 23 24 25 26 27 28
000
FTUS41 KBUF 171100
TAFJHW
TAF
KJHW 171121Z 1712/1812 19004KT P6SM SCT030 BKN050
     FM171400 21004KT P6SM SCT045
     FM171800 26007KT P6SM SCT035
     FM172200 30006KT P6SM SCT050
     FM180100 VRB03KT P6SM SCT200
     FM180800 VRB03KT 2SM BR SCT250
      AMD LTD TO CLD VIS AND WIND=

USA.gov is the U.S. government's official web portal to all federal, state and local government web resources and services.